This site, now in its 15th season, is a labour of love and fun from one of Ottawa's most avid time trialists and number crunchers. It adheres to and is permitted by the laws of Canada, promotes the objectives of every bicycle club whose results are shown, and is donated free of charge by myself for your enjoyment and usage. If you would like results from series you ride in to be shown here, give me (celia@drmath.ca) a shout!


Index Page
ATT OTT WTT AATT CFCTT VVVTT
Help resultformat:
Case-sensitive

OBC Open TT Series - 1994-Aug-18 - 15km (Rockliffe Pkwy) (EvtFactor = 0.9740)

Weather (18:00): Mainly Clear. Temp.: 24.2°C, Humidity: 61%, DewPoint: 16.3°C, Wind: E 7km/h, Pressure: 100.13kPa, Visibility: 16.1km, Humidex: 29.
Weather (19:00): Mostly Cloudy. Temp.: 23.5°C, Humidity: 65%, DewPoint: 16.6°C, Wind: SE 4km/h, Pressure: 100.13kPa, Visibility: 24.1km, Humidex: 28.
Weather (20:00): Mainly Clear. Temp.: 22.4°C, Humidity: 72%, DewPoint: 17.1°C, Wind: SSE 4km/h, Pressure: 100.19kPa, Visibility: 24.1km.

Send photos with description (when/where/what) of yourself on or off of bike to celia@drmath.ca

 
 

BESTS?
 
Y 1 Roy, Patrick OBC 19:42 45.685 1/72 OVAM 1/17 1.0490
2 Westwood, Chris --- 20:02 44.925 2/72 OSEM 1/27  
3 Duggan, Ray --- 20:11 44.591 3/72 OSEM 2/27 0.9901
4 Vokes, Robert --- 20:37 43.654 4/72 OSEM 3/27 0.9951
5 Georgas, Chris OBC 20:40 43.548 5/72 OVBM 1/12 0.9951
6 Cowan, Norman  OBC 20:44 43.408 6/72 OVAM 2/17 0.9386
Parkin, Brian OBC 20:44 43.408 6/72 OVAM 2/17 0.9642
8 Simpson, Bob OBC 20:45 43.373 8/72 OVBM 2/12 0.9572
9 Redding, Neil OBC 20:54 43.062 9/72 OVAM 4/17 0.9976
10 Hinz, Richard OBC 20:56 42.994 10/72 OVAM 5/17 0.9976
11 Aller, Brian --- 21:01 42.823 11/72 OVAM 6/17 1.0095
12 Morvan, Jacques  OBC 21:03 42.755 12/72 OVBM 3/12 0.9952
13 Fraser, Ian --- 21:06 42.654 13/72 OSEM 4/27 1.0071
14 Burge, Craig  --- 21:08 42.587 14/72 OSEM 5/27 0.9626
MacDonald, Ryan --- 21:08 42.587 14/72 OSEM 5/27 0.9673
16 Buffa, Alex  OBC 21:10 42.520 16/72 OSEM 7/27 0.9882
17 Bachman, Paul OBC 21:11 42.486 17/72 OSEM 8/27 0.9196
Griffiths, Chris OBC 21:11 42.486 17/72 OVBM 4/12 0.9789
Reinisch, Stephen --- 21:11 42.486 17/72 OSEM 8/27 0.9789
20 Carroll, Roger --- 21:12 42.453 20/72 OSEM 10/27  
21 Brooks, James --- 21:22 42.122 21/72 OSEM 11/27 1.1626
22 Bence, John OBC 21:25 42.023 22/72 OSEM 12/27 0.9586
Hicks, Bob  OBC 21:25 42.023 22/72 OVBM 5/12 0.9517
24 Higgins, Bryan OBC 21:27 41.958 24/72 OSEM 13/27 0.9451
25 Campbell, Colin  OBC 21:30 41.860 25/72 OSEM 14/27 0.9429
26 Archambault, Marc --- 21:35 41.699 26/72 OSEM 15/27 0.9747
Y Pazdzior, Ellen  OBC 21:35 41.699 26/72 OVAF 1/5 1.0352
Schuck, Peter  OBC 21:35 41.699 26/72 OVAM 7/17 1.0000
29 Martignago, Mike OBC 21:37 41.635 29/72 OVAM 8/17 0.9977
Munden, David --- 21:37 41.635 29/72 OSEM 16/27 1.0000
31 Moerman, Bram  OBC 21:41 41.507 31/72 OVBM 6/12 0.9658
32 St-Amour, Pierre OBC 21:43 41.443 32/72 OVAM 9/17 0.9194
33 Stewart, Ian OBC 21:59 40.940 33/72 OVAM 10/17 1.0023
34 Ford, Allen --- 22:07 40.693 34/72 OSEM 17/27 1.1198
35 Budd, Daniel OBC 22:11 40.571 35/72 OSEM 18/27 0.9688
36 Romkey, Gary OBC 22:14 40.480 36/72 OVBM 7/12 1.0364
37 Pritlove, James --- 22:22 40.238 37/72 OSEM 19/27 1.0385
38 Anstay, Kyle --- 22:29 40.030 38/72 U18M 1/1  
39 Burge, Larry  --- 22:33 39.911 39/72 OSEM 20/27 1.0890
Y 40 Reid, Jack --- 22:40 39.706 40/72 G64M 1/1 1.0585
41 Lang, Tim --- 22:41 39.677 41/72 OSEM 21/27 1.0067
42 Franks, Greg OBC 22:43 39.618 42/72 OVAM 11/17 0.9524
43 Bachman, Mike OBC 22:51 39.387 43/72 OVCM 1/2 0.9611
44 Padilla, Alberto --- 23:00 39.130 44/72 OVAM 12/17 0.9571
45 Tamborine, Don --- 23:03 39.046 45/72 OVBM 8/12 1.0241
46 Richens, Dominic --- 23:11 38.821 46/72 OSEM 22/27  
47 Paterson, Gail OBC 23:16 38.682 47/72 OSEF 1/3  
48 Anderson, Allan OBC 23:22 38.516 48/72 OVAM 13/17 0.9724
Boissonneault, France OBC 23:22 38.516 48/72 OVAF 2/5 0.9957
50 Delisle, Stephane --- 23:27 38.380 50/72 OSEM 23/27 0.9621
51 Montpetit, Stephane --- 23:32 38.244 51/72 OSEM 24/27 1.0193
52 Ménard, Monique OBC 23:39 38.055 52/72 OSEF 2/3 0.8804
Weiman, David --- 23:39 38.055 52/72 OSEM 25/27 1.0106
54 Singer, Les --- 23:46 37.868 54/72 OVAM 14/17  
55 Davison, Peter OBC 23:47 37.842 55/72 OVBM 9/12 1.0340
56 Moxley, Don OBC 23:59 37.526 56/72 OVBM 10/12 0.9288
57 Ajersch, Mary  OBC 24:16 37.088 57/72 OVBF 1/2 0.9959
58 Bridgen, Stuart --- 24:21 36.961 58/72 OVCM 2/2  
59 Wennerwald, Henning OBC 24:27 36.810 59/72 OVBM 11/12 1.0457
60 Chen, Jonathan --- 24:41 36.462 60/72 OSEM 26/27 1.0769
61 Fortey, Brian ABC 24:54 36.145 61/72 OJUM 1/1 1.0428
62 Dawson, Michael OBC 24:56 36.096 62/72 OCAM 1/1 0.9880
63 McInnis, Celia  OBC 24:59 36.024 63/72 OVAF 3/5 0.9841
64 James, Peter OBC 25:36 35.156 64/72 OVAM 15/17 0.8837
65 Pepper, Anne --- 25:42 35.019 65/72 OSEF 3/3 0.9672
66 Runge, Don --- 25:43 34.997 66/72 OVAM 16/17 1.0394
67 Lamirande, Donald --- 25:50 34.839 67/72 OVBM 12/12  
68 Girouard, Marcie --- 26:19 34.199 68/72 OVAF 4/5 0.9792
69 Fréchette, Serge --- 26:26 34.048 69/72 OVAM 17/17 0.8528
70 McCarthy, Steven --- 26:37 33.813 70/72 OSEM 27/27  
71 Montserrat, Fabienne OBC 27:21 32.907 71/72 OVAF 5/5 0.9461
72 Gerber, Rosmarie OBC 27:31 32.707 72/72 OVBF 2/2 0.9395
 
Average Speed of all of the above 72 finishes (1080km in 27:16:40):39.593
>>>Average of the Average Speeds for these 72 finishes39.847<<<
 

The number of data records shown above is 72
The server processing of your query took: 1 wallclock secs ( 0.14 usr + 0.03 sys = 0.17 CPU)

     


Apr 1 (Good Friday) Apr 14 Apr 21 Apr 28
May 3 May 5 May 10 May 12 (22km) May 15 (40km) May 17 May 19 May 24 May 24 (10km) May 26 (cancelled) May 29 (40km)
Jun 2 Jun 5 (38km) Jun 7 Jun 9 Jun 14 (40km) Jun 14 Jun 16 Jun 21 Jun 21 Jun 23 Jun 26 (40km/80km) Jun 28 (40km) Jun 28 Jun 29
Jul 5 Jul 6 Jul 7 Jul 10 (22km) Jul 12 Jul 13 Jul 14 Jul 19 Jul 20 Jul 21 Jul 24 (38km) Jul 26 Jul 27 Jul 28
Aug 2 Aug 3 Aug 9 Aug 10 Aug 11 Aug 14 (40km/80km) Aug 16 Aug 17
  Aug 18  
Aug 20 (22km) Aug 23 Aug 24 Aug 28 (38km) Aug 30 (Invitational) Aug 31
Sep 1 Sep 6 Sep 8 Sep 13 Sep 20 Sep 25 (40km)

OTT Rankings
Best       Best by category
WTT Rankings for OBC Members
5 Best 15km     5 Best 15km by category
OBC Member Best Three 15km Rankings
Overall     by category
OBC BAR Ranking
Overall     by category     Rider "Consistency-Graph"
ABC BAR Ranking
Overall     by category     Rider "Consistency-Graph"
Other years
TT Calculator All TT People All TT events
ABC Home VVV Home
CKAP GOLD MEDAL
Other Links

Please send your comments and suggestions to: Celia McInnis
Copyright © 1998-2011 Celia McInnis. All rights reserved. Links are welcomed.